N66M KTNP-KSAN
Flight info
| Callsign | N66M |
|---|---|
| Flight time | 0h 29m |
| Altitude | 16000 |
| Route | TNP MOMAR LUCKI1 |
| Aircraft | E55P/L-VGDW/C |
Departure
| Time | 2026-04-25 03:40 |
|---|---|
| Airport | Twentynine Palms Airport (KTNP) |
Arrival
| Time | 2026-04-25 04:10 |
|---|---|
| Airport | San Diego International Airport (KSAN) |
| Time | Latitude | Longitude | Altitude | Speed | Heading |
|---|---|---|---|---|---|
| 2026-04-25 03:18 | 34.13548 | -115.94429 | 1942 ft | 0 kts | 2° |
| 2026-04-25 03:36 | 34.13555 | -115.94425 | 1950 ft | 2 kts | 55° |
| 2026-04-25 03:36 | 34.13548 | -115.94401 | 1950 ft | 4 kts | 130° |
| 2026-04-25 03:37 | 34.13524 | -115.94358 | 1950 ft | 8 kts | 102° |
| 2026-04-25 03:37 | 34.13522 | -115.94264 | 1950 ft | 14 kts | 90° |
| 2026-04-25 03:37 | 34.13524 | -115.94125 | 1949 ft | 18 kts | 90° |
| 2026-04-25 03:37 | 34.13524 | -115.93954 | 1949 ft | 21 kts | 89° |
| 2026-04-25 03:38 | 34.13526 | -115.93766 | 1949 ft | 22 kts | 90° |
| 2026-04-25 03:38 | 34.13526 | -115.93590 | 1948 ft | 16 kts | 89° |
| 2026-04-25 03:38 | 34.13499 | -115.93522 | 1948 ft | 8 kts | 181° |
| 2026-04-25 03:38 | 34.13446 | -115.93531 | 1949 ft | 6 kts | 245° |
| 2026-04-25 03:39 | 34.13445 | -115.93555 | 1949 ft | 0 kts | 269° |
| 2026-04-25 03:39 | 34.13443 | -115.93649 | 1949 ft | 41 kts | 268° |
| 2026-04-25 03:40 | 34.13440 | -115.94311 | 1950 ft | 114 kts | 269° |
| 2026-04-25 03:40 | 34.13447 | -115.95457 | 2137 ft | 148 kts | 271° |
| 2026-04-25 03:40 | 34.13445 | -115.96728 | 2735 ft | 159 kts | 270° |
| 2026-04-25 03:40 | 34.13796 | -115.97957 | 3372 ft | 166 kts | 315° |
| 2026-04-25 03:41 | 34.14806 | -115.98467 | 4145 ft | 164 kts | 3° |
| 2026-04-25 03:41 | 34.15785 | -115.97920 | 4920 ft | 161 kts | 51° |
| 2026-04-25 03:41 | 34.16132 | -115.96700 | 5651 ft | 157 kts | 90° |
| 2026-04-25 03:41 | 34.16120 | -115.95400 | 6349 ft | 158 kts | 90° |
| 2026-04-25 03:42 | 34.16103 | -115.94052 | 7055 ft | 168 kts | 91° |
| 2026-04-25 03:42 | 34.16095 | -115.92598 | 7761 ft | 185 kts | 91° |
| 2026-04-25 03:42 | 34.16100 | -115.90987 | 8463 ft | 204 kts | 91° |
| 2026-04-25 03:42 | 34.16099 | -115.89208 | 9161 ft | 223 kts | 99° |
| 2026-04-25 03:43 | 34.15409 | -115.87543 | 9891 ft | 233 kts | 142° |
| 2026-04-25 03:43 | 34.13919 | -115.86828 | 10639 ft | 241 kts | 181° |
| 2026-04-25 03:43 | 34.12221 | -115.86920 | 11358 ft | 257 kts | 185° |
| 2026-04-25 03:43 | 34.10383 | -115.87099 | 12054 ft | 275 kts | 187° |
| 2026-04-25 03:44 | 34.08415 | -115.87331 | 12773 ft | 292 kts | 188° |
| 2026-04-25 03:44 | 34.06356 | -115.87585 | 13492 ft | 308 kts | 188° |
| 2026-04-25 03:44 | 34.04157 | -115.87861 | 14229 ft | 323 kts | 189° |
| 2026-04-25 03:44 | 34.01908 | -115.88144 | 14957 ft | 336 kts | 189° |
| 2026-04-25 03:45 | 33.99517 | -115.88444 | 15682 ft | 349 kts | 189° |
| 2026-04-25 03:45 | 33.97056 | -115.88753 | 16035 ft | 365 kts | 190° |
| 2026-04-25 03:45 | 33.94456 | -115.89080 | 16097 ft | 377 kts | 190° |
| 2026-04-25 03:45 | 33.91856 | -115.89404 | 16090 ft | 380 kts | 191° |
| 2026-04-25 03:46 | 33.89347 | -115.89719 | 16143 ft | 379 kts | 191° |
| 2026-04-25 03:46 | 33.86709 | -115.90052 | 16080 ft | 377 kts | 191° |
| 2026-04-25 03:46 | 33.84114 | -115.90377 | 15997 ft | 376 kts | 191° |
| 2026-04-25 03:46 | 33.81547 | -115.90698 | 15904 ft | 372 kts | 192° |
| 2026-04-25 03:47 | 33.78957 | -115.91023 | 15701 ft | 364 kts | 192° |
| 2026-04-25 03:47 | 33.76483 | -115.91333 | 15672 ft | 353 kts | 192° |
| 2026-04-25 03:47 | 33.74055 | -115.91640 | 15701 ft | 356 kts | 191° |
| 2026-04-25 03:47 | 33.71556 | -115.91952 | 15653 ft | 361 kts | 191° |
| 2026-04-25 03:48 | 33.69027 | -115.92268 | 15707 ft | 364 kts | 191° |
| 2026-04-25 03:48 | 33.66506 | -115.92580 | 15788 ft | 366 kts | 191° |
| 2026-04-25 03:48 | 33.63969 | -115.92897 | 15854 ft | 368 kts | 191° |
| 2026-04-25 03:48 | 33.61421 | -115.93215 | 15940 ft | 371 kts | 191° |
| 2026-04-25 03:49 | 33.58812 | -115.93539 | 15935 ft | 373 kts | 191° |
| 2026-04-25 03:49 | 33.56250 | -115.93853 | 15908 ft | 368 kts | 191° |
| 2026-04-25 03:49 | 33.53711 | -115.94185 | 15887 ft | 366 kts | 194° |
| 2026-04-25 03:49 | 33.51414 | -115.95250 | 15871 ft | 350 kts | 219° |
| 2026-04-25 03:50 | 33.49823 | -115.97330 | 15843 ft | 340 kts | 239° |
| 2026-04-25 03:50 | 33.48484 | -115.99658 | 15823 ft | 336 kts | 237° |
| 2026-04-25 03:50 | 33.47161 | -116.01942 | 15819 ft | 328 kts | 238° |
| 2026-04-25 03:50 | 33.45879 | -116.04142 | 15819 ft | 321 kts | 238° |
| 2026-04-25 03:51 | 33.44621 | -116.06312 | 15828 ft | 318 kts | 238° |
| 2026-04-25 03:51 | 33.43343 | -116.08513 | 15841 ft | 320 kts | 238° |
| 2026-04-25 03:51 | 33.42075 | -116.10694 | 15849 ft | 321 kts | 238° |
| 2026-04-25 03:51 | 33.40798 | -116.12891 | 15856 ft | 322 kts | 238° |
| 2026-04-25 03:52 | 33.39536 | -116.15061 | 15864 ft | 321 kts | 238° |
| 2026-04-25 03:52 | 33.38259 | -116.17255 | 15870 ft | 320 kts | 238° |
| 2026-04-25 03:52 | 33.36990 | -116.19434 | 15876 ft | 319 kts | 238° |
| 2026-04-25 03:52 | 33.35723 | -116.21608 | 15882 ft | 317 kts | 238° |
| 2026-04-25 03:53 | 33.34461 | -116.23770 | 15883 ft | 317 kts | 238° |
| 2026-04-25 03:53 | 33.32862 | -116.25590 | 15884 ft | 328 kts | 214° |
| 2026-04-25 03:53 | 33.30775 | -116.26744 | 15907 ft | 330 kts | 212° |
| 2026-04-25 03:53 | 33.28713 | -116.27964 | 15916 ft | 332 kts | 211° |
| 2026-04-25 03:54 | 33.26613 | -116.29188 | 15938 ft | 333 kts | 211° |
| 2026-04-25 03:54 | 33.24527 | -116.30408 | 15960 ft | 335 kts | 211° |
| 2026-04-25 03:54 | 33.22421 | -116.31641 | 15955 ft | 336 kts | 211° |
| 2026-04-25 03:54 | 33.20348 | -116.32852 | 15878 ft | 329 kts | 212° |
| 2026-04-25 03:55 | 33.18348 | -116.34019 | 15642 ft | 315 kts | 212° |
| 2026-04-25 03:55 | 33.16364 | -116.35184 | 15401 ft | 316 kts | 212° |
| 2026-04-25 03:55 | 33.14405 | -116.36332 | 15159 ft | 317 kts | 212° |
| 2026-04-25 03:55 | 33.12408 | -116.37499 | 14902 ft | 318 kts | 211° |
| 2026-04-25 03:56 | 33.10437 | -116.38651 | 14589 ft | 319 kts | 211° |
| 2026-04-25 03:56 | 33.08440 | -116.39819 | 14226 ft | 319 kts | 211° |
| 2026-04-25 03:56 | 33.06446 | -116.40981 | 13827 ft | 318 kts | 211° |
| 2026-04-25 03:56 | 33.04476 | -116.42130 | 13438 ft | 315 kts | 211° |
| 2026-04-25 03:57 | 33.02513 | -116.43274 | 13051 ft | 312 kts | 211° |
| 2026-04-25 03:57 | 33.00578 | -116.44437 | 12658 ft | 307 kts | 216° |
| 2026-04-25 03:57 | 32.98972 | -116.46021 | 12274 ft | 296 kts | 225° |
| 2026-04-25 03:57 | 32.97412 | -116.47580 | 11879 ft | 289 kts | 224° |
| 2026-04-25 03:58 | 32.95901 | -116.49112 | 11481 ft | 284 kts | 224° |
| 2026-04-25 03:58 | 32.94405 | -116.50623 | 11078 ft | 280 kts | 224° |
| 2026-04-25 03:58 | 32.92948 | -116.52094 | 10675 ft | 276 kts | 223° |
| 2026-04-25 03:58 | 32.91493 | -116.53562 | 10314 ft | 271 kts | 223° |
| 2026-04-25 03:59 | 32.90057 | -116.55010 | 9870 ft | 269 kts | 223° |
| 2026-04-25 03:59 | 32.88631 | -116.56448 | 9428 ft | 271 kts | 223° |
| 2026-04-25 03:59 | 32.87178 | -116.57914 | 9016 ft | 274 kts | 223° |
| 2026-04-25 03:59 | 32.85724 | -116.59380 | 8679 ft | 277 kts | 222° |
| 2026-04-25 04:00 | 32.84264 | -116.60847 | 8670 ft | 272 kts | 222° |
| 2026-04-25 04:00 | 32.82836 | -116.62284 | 8617 ft | 268 kts | 222° |
| 2026-04-25 04:00 | 32.81407 | -116.63724 | 8468 ft | 272 kts | 221° |
| 2026-04-25 04:00 | 32.79957 | -116.65184 | 8325 ft | 272 kts | 221° |
| 2026-04-25 04:01 | 32.78502 | -116.66647 | 8183 ft | 272 kts | 221° |
| 2026-04-25 04:01 | 32.77157 | -116.68216 | 7981 ft | 268 kts | 237° |
| 2026-04-25 04:01 | 32.76280 | -116.70139 | 7548 ft | 265 kts | 240° |
| 2026-04-25 04:01 | 32.75378 | -116.72034 | 7075 ft | 263 kts | 241° |
| 2026-04-25 04:02 | 32.74501 | -116.73891 | 6616 ft | 261 kts | 240° |
| 2026-04-25 04:02 | 32.73608 | -116.75773 | 6167 ft | 258 kts | 240° |
| 2026-04-25 04:02 | 32.72762 | -116.77557 | 6084 ft | 239 kts | 241° |
| 2026-04-25 04:02 | 32.71971 | -116.79226 | 5991 ft | 229 kts | 241° |
| 2026-04-25 04:03 | 32.71188 | -116.80875 | 5975 ft | 226 kts | 241° |
| 2026-04-25 04:03 | 32.70496 | -116.82529 | 5858 ft | 224 kts | 250° |
| 2026-04-25 04:03 | 32.69962 | -116.84247 | 5633 ft | 223 kts | 250° |
| 2026-04-25 04:03 | 32.69436 | -116.85958 | 5289 ft | 212 kts | 250° |
| 2026-04-25 04:04 | 32.68956 | -116.87541 | 5051 ft | 195 kts | 250° |
| 2026-04-25 04:04 | 32.68627 | -116.89026 | 4850 ft | 181 kts | 252° |
| 2026-04-25 04:04 | 32.68147 | -116.90406 | 4625 ft | 188 kts | 248° |
| 2026-04-25 04:04 | 32.67683 | -116.91892 | 4235 ft | 197 kts | 250° |
| 2026-04-25 04:05 | 32.67245 | -116.93400 | 4026 ft | 188 kts | 257° |
| 2026-04-25 04:05 | 32.67408 | -116.94930 | 3720 ft | 191 kts | 291° |
| 2026-04-25 04:05 | 32.67845 | -116.96407 | 3605 ft | 186 kts | 285° |
| 2026-04-25 04:05 | 32.68209 | -116.97845 | 3591 ft | 182 kts | 285° |
| 2026-04-25 04:06 | 32.68574 | -116.99316 | 3359 ft | 187 kts | 284° |
| 2026-04-25 04:06 | 32.68936 | -117.00794 | 3089 ft | 189 kts | 284° |
| 2026-04-25 04:06 | 32.69302 | -117.02306 | 2819 ft | 192 kts | 285° |
| 2026-04-25 04:06 | 32.69669 | -117.03815 | 2702 ft | 185 kts | 285° |
| 2026-04-25 04:07 | 32.70024 | -117.05254 | 2526 ft | 182 kts | 285° |
| 2026-04-25 04:07 | 32.70375 | -117.06698 | 2227 ft | 181 kts | 284° |
| 2026-04-25 04:07 | 32.70723 | -117.08115 | 1940 ft | 166 kts | 284° |
| 2026-04-25 04:07 | 32.71011 | -117.09374 | 1741 ft | 152 kts | 284° |
| 2026-04-25 04:08 | 32.71296 | -117.10539 | 1514 ft | 145 kts | 284° |
| 2026-04-25 04:08 | 32.71569 | -117.11656 | 1304 ft | 138 kts | 284° |
| 2026-04-25 04:08 | 32.71834 | -117.12730 | 1089 ft | 136 kts | 284° |
| 2026-04-25 04:08 | 32.72104 | -117.13807 | 940 ft | 134 kts | 283° |
| 2026-04-25 04:09 | 32.72356 | -117.14854 | 701 ft | 130 kts | 283° |
| 2026-04-25 04:09 | 32.72599 | -117.15864 | 503 ft | 123 kts | 284° |
| 2026-04-25 04:09 | 32.72834 | -117.16816 | 297 ft | 118 kts | 283° |
| 2026-04-25 04:09 | 32.73058 | -117.17723 | 94 ft | 109 kts | 283° |
| 2026-04-25 04:10 | 32.73246 | -117.18529 | 21 ft | 92 kts | 285° |
| 2026-04-25 04:10 | 32.73378 | -117.19036 | 21 ft | 28 kts | 300° |
| 2026-04-25 04:10 | 32.73463 | -117.19080 | 21 ft | 9 kts | 32° |
| 2026-04-25 04:10 | 32.73482 | -117.19050 | 21 ft | 0 kts | 77° |
| 2026-04-25 04:11 | 32.73483 | -117.19045 | 21 ft | 2 kts | 83° |
| 2026-04-25 04:12 | 32.73473 | -117.18976 | 21 ft | 15 kts | 104° |
| 2026-04-25 04:12 | 32.73435 | -117.18824 | 21 ft | 21 kts | 105° |
| 2026-04-25 04:12 | 32.73391 | -117.18645 | 21 ft | 22 kts | 105° |
| 2026-04-25 04:12 | 32.73348 | -117.18462 | 21 ft | 23 kts | 107° |
| 2026-04-25 04:13 | 32.73299 | -117.18263 | 21 ft | 26 kts | 105° |
| 2026-04-25 04:13 | 32.73253 | -117.18063 | 21 ft | 22 kts | 106° |
| 2026-04-25 04:13 | 32.73315 | -117.17964 | 21 ft | 16 kts | 14° |
| 2026-04-25 04:13 | 32.73403 | -117.17934 | 21 ft | 10 kts | 17° |
| 2026-04-25 04:14 | 32.73434 | -117.17959 | 21 ft | 0 kts | 288° |